Time;durP1;ratioP1;P1;durP2;ratioP2;P2;SDS_P1;SDS_P2;PMS_P1;PMS_P2;Temp;Humidity;BMP_temperature;BMP_pressure;BME280_temperature;BME280_humidity;BME280_pressure;Samples;Min_cycle;Max_cycle;Signal;HPM_P1;HPM_P2
2023/03/05 00:01:15;;;;;;;54.17;33.13;;;5.20;99.90;;;;;;5018363;28;20032;-71
2023/03/05 00:03:41;;;;;;;50.88;33.47;;;5.20;99.90;;;;;;5036365;28;20033;-71
2023/03/05 00:06:07;;;;;;;56.55;35.83;;;5.20;99.90;;;;;;5037790;28;20077;-72
2023/03/05 00:08:33;;;;;;;56.03;32.63;;;5.20;99.90;;;;;;5040572;28;20035;-71
2023/03/05 00:11:05;;;;;;;52.45;35.03;;;5.20;99.90;;;;;;5022135;28;20482;-71
2023/03/05 00:13:31;;;;;;;52.88;33.30;;;5.10;99.90;;;;;;5040362;28;20500;-71
2023/03/05 00:15:57;;;;;;;55.65;35.03;;;5.00;99.90;;;;;;5039961;28;20512;-71
2023/03/05 00:18:23;;;;;;;56.72;37.08;;;5.00;99.90;;;;;;5040025;28;20500;-71
2023/03/05 00:20:49;;;;;;;54.10;35.67;;;4.90;99.90;;;;;;5040150;28;20021;-72
2023/03/05 00:23:15;;;;;;;57.58;34.58;;;5.00;99.90;;;;;;5039700;28;20025;-71
2023/03/05 00:25:41;;;;;;;54.55;35.67;;;4.90;99.90;;;;;;5039899;28;20130;-71
2023/03/05 00:28:07;;;;;;;53.03;34.42;;;4.90;99.90;;;;;;5040209;28;20025;-72
2023/03/05 00:30:33;;;;;;;54.22;37.25;;;4.80;99.90;;;;;;5039719;28;20053;-71
2023/03/05 00:32:59;;;;;;;56.72;36.72;;;4.90;99.90;;;;;;5022139;28;20052;-71
2023/03/05 00:35:25;;;;;;;53.40;36.08;;;4.90;99.90;;;;;;5039933;28;20532;-72
2023/03/05 00:37:51;;;;;;;52.28;33.85;;;4.80;99.90;;;;;;5040098;28;20029;-71
2023/03/05 00:40:17;;;;;;;56.08;34.45;;;4.80;99.90;;;;;;5039732;28;20025;-71
2023/03/05 00:42:42;;;;;;;58.92;35.60;;;4.70;99.90;;;;;;5039946;28;20017;-71
2023/03/05 00:45:09;;;;;;;53.15;34.70;;;4.70;99.90;;;;;;5039254;28;20084;-71
2023/03/05 00:47:34;;;;;;;58.28;36.13;;;4.70;99.90;;;;;;5039215;28;20030;-72
2023/03/05 00:50:00;;;;;;;59.72;36.25;;;4.60;99.90;;;;;;5039426;28;20026;-71
2023/03/05 00:52:26;;;;;;;53.88;33.67;;;4.60;99.90;;;;;;5021849;28;20017;-71
2023/03/05 00:54:52;;;;;;;55.83;34.25;;;4.60;99.90;;;;;;5021647;28;20489;-72
2023/03/05 00:57:17;;;;;;;51.70;34.08;;;4.60;99.90;;;;;;5039396;28;20071;-71
2023/03/05 00:59:43;;;;;;;53.20;34.92;;;4.60;99.90;;;;;;5039390;28;20033;-71
2023/03/05 01:02:10;;;;;;;53.78;35.83;;;4.60;99.90;;;;;;5021463;28;20504;-71
2023/03/05 01:04:35;;;;;;;52.47;34.85;;;4.60;99.90;;;;;;5021606;28;20116;-72
2023/03/05 01:07:01;;;;;;;57.88;36.70;;;4.60;99.90;;;;;;5039221;28;20221;-72
2023/03/05 01:09:27;;;;;;;54.63;35.17;;;4.60;99.90;;;;;;5039312;28;20018;-72
2023/03/05 01:11:53;;;;;;;54.72;35.55;;;4.70;99.90;;;;;;5039439;28;20068;-72
2023/03/05 01:14:20;;;;;;;57.80;35.15;;;4.60;99.90;;;;;;5021372;28;20029;-72
2023/03/05 01:16:45;;;;;;;55.75;35.03;;;4.60;99.90;;;;;;5038380;28;20038;-71
2023/03/05 01:19:12;;;;;;;57.53;36.72;;;4.60;99.90;;;;;;5019976;28;20014;-71
2023/03/05 01:21:38;;;;;;;52.30;35.22;;;4.60;99.90;;;;;;5020209;28;20059;-72
2023/03/05 01:24:04;;;;;;;53.35;34.95;;;4.60;99.90;;;;;;5037948;28;20499;-71
2023/03/05 01:26:30;;;;;;;58.05;36.70;;;4.60;99.90;;;;;;5038104;28;20029;-71
2023/03/05 01:28:56;;;;;;;57.95;35.03;;;4.60;99.90;;;;;;5037910;28;20051;-71
2023/03/05 01:31:21;;;;;;;53.15;33.72;;;4.60;99.90;;;;;;5037576;28;20108;-71
2023/03/05 01:33:47;;;;;;;53.22;34.13;;;4.60;99.90;;;;;;5020033;28;20022;-71
2023/03/05 01:36:15;;;;;;;56.45;33.08;;;4.50;99.90;;;;;;5037517;28;20437;-71
2023/03/05 01:38:45;;;;;;;53.28;34.83;;;4.50;99.90;;;;;;5038013;28;20032;-71
2023/03/05 01:41:12;;;;;;;49.00;33.22;;;4.50;99.90;;;;;;5037606;28;20084;-71
2023/03/05 01:43:38;;;;;;;52.55;34.28;;;4.40;99.90;;;;;;5037883;28;20478;-71
2023/03/05 01:46:25;;;;;;;53.33;33.72;;;4.40;99.90;;;;;;5037366;28;20021;-71
2023/03/05 01:49:03;;;;;;;53.97;35.33;;;4.30;99.90;;;;;;5037540;28;20026;-71
2023/03/05 01:51:34;;;;;;;55.22;35.28;;;4.20;99.90;;;;;;5037093;28;20117;-71
2023/03/05 01:54:00;;;;;;;55.97;34.42;;;4.00;99.90;;;;;;5019520;28;20030;-71
2023/03/05 01:56:29;;;;;;;49.75;33.55;;;3.80;99.90;;;;;;5037370;28;20013;-71
2023/03/05 01:59:02;;;;;;;52.30;34.78;;;3.60;99.90;;;;;;5037375;28;20496;-71
2023/03/05 02:01:48;;;;;;;57.10;34.00;;;3.30;99.90;;;;;;5037432;28;20036;-71
2023/03/05 02:04:17;;;;;;;57.45;35.38;;;3.20;99.90;;;;;;5037200;28;20023;-71
2023/03/05 02:06:44;;;;;;;56.97;36.42;;;3.00;99.90;;;;;;5037500;28;20416;-71
2023/03/05 02:09:10;;;;;;;58.22;35.70;;;2.90;99.90;;;;;;5036931;28;20044;-71
2023/03/05 02:11:36;;;;;;;56.15;34.83;;;2.80;99.90;;;;;;5037298;28;20022;-71
2023/03/05 02:14:03;;;;;;;58.45;36.58;;;2.70;99.90;;;;;;5019038;28;20040;-71
2023/03/05 02:16:35;;;;;;;56.47;36.92;;;2.90;99.90;;;;;;4997533;28;1153522;-71
2023/03/05 02:19:07;;;;;;;58.88;38.00;;;3.00;99.90;;;;;;5037498;28;20026;-71
2023/03/05 02:21:45;;;;;;;57.72;36.72;;;3.00;99.90;;;;;;5020026;28;20029;-71
2023/03/05 02:24:15;;;;;;;53.92;35.22;;;3.10;99.90;;;;;;5030166;28;20048;-71
2023/03/05 02:26:43;;;;;;;58.95;36.15;;;3.30;99.90;;;;;;5032113;28;20105;-71
2023/03/05 02:29:11;;;;;;;55.97;35.50;;;3.30;99.90;;;;;;5015990;28;20037;-71
2023/03/05 02:31:37;;;;;;;56.30;38.53;;;3.40;99.90;;;;;;5037289;28;20017;-71
2023/03/05 02:34:03;;;;;;;59.33;37.95;;;3.40;99.90;;;;;;5037559;28;20093;-71
2023/03/05 02:36:29;;;;;;;59.65;36.53;;;3.40;99.90;;;;;;5037431;28;20068;-69
2023/03/05 02:38:56;;;;;;;53.83;34.80;;;3.50;99.90;;;;;;5037770;28;20477;-69
2023/03/05 02:41:23;;;;;;;60.47;37.92;;;3.40;99.90;;;;;;5037354;28;20025;-71
2023/03/05 02:43:49;;;;;;;62.25;35.95;;;3.40;99.90;;;;;;5037639;28;20029;-71
2023/03/05 02:46:15;;;;;;;57.03;35.97;;;3.40;99.90;;;;;;5036936;28;20037;-71
2023/03/05 02:48:40;;;;;;;58.72;36.35;;;3.40;99.90;;;;;;5019793;28;20030;-72
2023/03/05 02:51:08;;;;;;;54.85;35.60;;;3.30;99.90;;;;;;5036723;28;20033;-71
2023/03/05 02:53:34;;;;;;;61.20;37.78;;;3.10;99.90;;;;;;5037277;28;20025;-71
2023/03/05 02:55:59;;;;;;;60.58;36.75;;;3.10;99.90;;;;;;5037229;28;20028;-71
2023/03/05 02:58:25;;;;;;;54.17;33.50;;;3.00;99.90;;;;;;5037550;28;20106;-69
2023/03/05 03:00:51;;;;;;;63.42;36.85;;;2.90;99.90;;;;;;5036929;28;20025;-70
2023/03/05 03:03:16;;;;;;;56.28;35.58;;;2.80;99.90;;;;;;5019501;28;20029;-71
2023/03/05 03:05:42;;;;;;;57.15;35.75;;;2.70;99.90;;;;;;5036933;28;20018;-69
2023/03/05 03:08:07;;;;;;;57.05;36.28;;;2.60;99.90;;;;;;5037230;28;20034;-69
2023/03/05 03:10:33;;;;;;;63.72;39.25;;;2.50;99.90;;;;;;5018958;28;20052;-69
2023/03/05 03:12:59;;;;;;;64.30;38.10;;;2.50;99.90;;;;;;5037346;28;20029;-69
2023/03/05 03:15:25;;;;;;;67.93;40.15;;;2.50;99.90;;;;;;5036310;28;20553;-70
2023/03/05 03:17:51;;;;;;;65.68;41.03;;;2.60;99.90;;;;;;5018895;28;20059;-69
2023/03/05 03:20:17;;;;;;;62.75;38.05;;;2.70;99.90;;;;;;5036614;28;20110;-69
2023/03/05 03:22:44;;;;;;;59.97;37.38;;;2.70;99.90;;;;;;5034643;28;20107;-70
2023/03/05 03:25:14;;;;;;;60.00;37.10;;;2.80;99.90;;;;;;5018720;28;20036;-69
2023/03/05 03:27:40;;;;;;;55.58;37.28;;;2.80;99.90;;;;;;5036806;28;20113;-69
2023/03/05 03:30:06;;;;;;;67.63;39.35;;;2.80;99.90;;;;;;5036527;28;20065;-69
2023/03/05 03:32:32;;;;;;;62.78;37.60;;;2.90;99.90;;;;;;5036606;28;20063;-69
2023/03/05 03:34:59;;;;;;;58.25;37.47;;;3.00;99.90;;;;;;5036495;28;20030;-69
2023/03/05 03:37:24;;;;;;;63.45;36.67;;;3.00;99.90;;;;;;5036883;28;20547;-70
2023/03/05 03:39:50;;;;;;;60.05;39.28;;;2.90;99.90;;;;;;5035684;28;20018;-69
2023/03/05 03:42:17;;;;;;;57.60;37.08;;;2.90;99.90;;;;;;5036425;28;20025;-69
2023/03/05 03:44:42;;;;;;;56.30;36.42;;;2.80;99.90;;;;;;5036427;28;20485;-69
2023/03/05 03:47:08;;;;;;;57.28;36.50;;;2.80;99.90;;;;;;5036527;28;20034;-69
2023/03/05 03:49:34;;;;;;;63.85;39.38;;;2.70;99.90;;;;;;5036285;28;20072;-69
2023/03/05 03:51:59;;;;;;;61.28;38.38;;;2.90;99.90;;;;;;5036737;28;20033;-69
2023/03/05 03:54:25;;;;;;;63.38;37.72;;;2.90;99.90;;;;;;5036474;28;20481;-69
2023/03/05 03:56:51;;;;;;;59.88;39.47;;;3.00;99.90;;;;;;5036708;28;20039;-69
2023/03/05 03:59:17;;;;;;;59.75;38.92;;;3.00;99.90;;;;;;5036341;28;20101;-69
2023/03/05 04:01:43;;;;;;;67.25;40.17;;;2.90;99.90;;;;;;5036427;28;20030;-69
2023/03/05 04:04:11;;;;;;;64.78;39.38;;;2.90;99.90;;;;;;5036195;28;20489;-69
2023/03/05 04:06:36;;;;;;;61.72;37.08;;;3.00;99.90;;;;;;5035790;28;20033;-69
2023/03/05 04:09:03;;;;;;;62.30;39.03;;;3.00;99.90;;;;;;5036125;28;20029;-69
2023/03/05 04:11:28;;;;;;;65.70;37.22;;;3.00;99.90;;;;;;5036145;28;20025;-69
2023/03/05 04:13:54;;;;;;;60.45;37.90;;;3.00;99.90;;;;;;5036336;28;20052;-69
2023/03/05 04:16:20;;;;;;;60.67;36.35;;;3.00;99.90;;;;;;5036059;28;20057;-69
2023/03/05 04:18:45;;;;;;;61.53;37.17;;;3.00;99.90;;;;;;5018127;28;20075;-69
2023/03/05 04:21:11;;;;;;;65.28;38.47;;;3.00;99.90;;;;;;5036612;28;20067;-69
2023/03/05 04:23:38;;;;;;;63.17;38.00;;;3.10;99.90;;;;;;5014793;28;20486;-69
2023/03/05 04:26:04;;;;;;;61.40;37.47;;;3.10;99.90;;;;;;5031930;28;20025;-69
2023/03/05 04:28:29;;;;;;;60.83;38.50;;;3.10;99.90;;;;;;5035145;28;20513;-71
2023/03/05 04:30:55;;;;;;;58.00;35.22;;;3.10;99.90;;;;;;5035551;28;20053;-69
2023/03/05 04:33:21;;;;;;;62.38;38.78;;;3.00;99.90;;;;;;5034037;28;20102;-69
2023/03/05 04:35:46;;;;;;;60.28;37.28;;;3.10;99.90;;;;;;5035206;28;20018;-70
2023/03/05 04:38:12;;;;;;;62.38;38.60;;;3.00;99.90;;;;;;5008851;28;20462;-69
2023/03/05 04:40:38;;;;;;;63.45;37.97;;;3.00;99.90;;;;;;5035393;28;20028;-69
2023/03/05 04:43:04;;;;;;;55.88;35.90;;;2.90;99.90;;;;;;5015837;28;20025;-69
2023/03/05 04:45:31;;;;;;;55.78;34.03;;;2.80;99.90;;;;;;5034790;28;20034;-71
2023/03/05 04:47:57;;;;;;;60.65;37.05;;;2.60;99.90;;;;;;5033119;28;20112;-69
2023/03/05 04:50:23;;;;;;;64.60;35.35;;;2.50;99.90;;;;;;5027834;28;20030;-69
2023/03/05 04:52:49;;;;;;;56.58;35.78;;;2.30;99.90;;;;;;5035618;28;20032;-69
2023/03/05 04:55:16;;;;;;;60.35;35.50;;;2.10;99.90;;;;;;5020756;28;20108;-69
2023/03/05 04:57:42;;;;;;;57.42;37.13;;;2.00;99.90;;;;;;5035142;28;20105;-69
2023/03/05 05:00:15;;;;;;;60.70;37.80;;;1.90;99.90;;;;;;5035962;28;20431;-69
2023/03/05 05:02:43;;;;;;;63.33;38.78;;;1.80;99.90;;;;;;5038862;28;20389;-69
2023/03/05 05:05:12;;;;;;;67.28;38.95;;;1.70;99.90;;;;;;5021837;28;20025;-69
2023/03/05 05:07:38;;;;;;;60.67;39.40;;;1.60;99.90;;;;;;5039224;28;20052;-69
2023/03/05 05:10:06;;;;;;;56.90;37.40;;;1.60;99.90;;;;;;5021713;28;20030;-69
2023/03/05 05:12:32;;;;;;;70.70;39.83;;;1.50;99.90;;;;;;5021735;28;20057;-69
2023/03/05 05:14:58;;;;;;;69.05;40.65;;;1.50;99.90;;;;;;5039314;28;20444;-69
2023/03/05 05:17:24;;;;;;;60.22;40.15;;;1.40;99.90;;;;;;5038537;28;20069;-69
2023/03/05 05:19:50;;;;;;;65.72;39.72;;;1.40;99.90;;;;;;5039188;28;20025;-69
2023/03/05 05:22:16;;;;;;;59.65;39.38;;;1.40;99.90;;;;;;5038979;28;20076;-69
2023/03/05 05:24:41;;;;;;;61.83;40.15;;;1.30;99.90;;;;;;5033473;28;20071;-69
2023/03/05 05:27:07;;;;;;;64.20;40.50;;;1.30;99.90;;;;;;5033125;28;20477;-69
2023/03/05 05:29:32;;;;;;;64.60;41.38;;;1.30;99.90;;;;;;5038247;28;20026;-69
2023/03/05 05:31:58;;;;;;;56.92;39.70;;;1.30;99.90;;;;;;5034773;28;20034;-69
2023/03/05 05:34:24;;;;;;;64.85;38.67;;;1.30;99.90;;;;;;5021052;28;20160;-69
2023/03/05 05:36:50;;;;;;;72.75;39.67;;;1.30;99.90;;;;;;5028517;28;20026;-69
2023/03/05 05:39:16;;;;;;;71.28;41.17;;;1.30;99.90;;;;;;5036117;28;20021;-69
2023/03/05 05:41:42;;;;;;;66.07;40.53;;;1.20;99.90;;;;;;5037787;28;20038;-69
2023/03/05 05:44:08;;;;;;;68.65;39.78;;;1.20;99.90;;;;;;5038225;28;20036;-69
2023/03/05 05:46:33;;;;;;;65.43;40.47;;;1.20;99.90;;;;;;5019783;28;20036;-69
2023/03/05 05:48:59;;;;;;;70.25;39.80;;;1.30;99.90;;;;;;5038131;28;20033;-69
2023/03/05 05:51:25;;;;;;;71.60;41.10;;;1.30;99.90;;;;;;5037950;28;20389;-69
2023/03/05 05:53:50;;;;;;;76.60;42.60;;;1.30;99.90;;;;;;5038245;28;20021;-69
2023/03/05 05:56:17;;;;;;;67.40;42.20;;;1.30;99.90;;;;;;5034287;28;20028;-71
2023/03/05 05:58:46;;;;;;;65.78;40.33;;;1.30;99.90;;;;;;5031276;28;20067;-69
2023/03/05 06:01:27;;;;;;;69.85;40.97;;;1.30;99.90;;;;;;5015023;28;20026;-69
2023/03/05 06:03:54;;;;;;;70.25;41.45;;;1.30;99.90;;;;;;5037006;28;20017;-69
2023/03/05 06:06:21;;;;;;;63.90;40.80;;;1.30;99.90;;;;;;5020462;28;20022;-69
2023/03/05 06:08:47;;;;;;;73.07;39.65;;;1.40;99.90;;;;;;5037646;28;20494;-69
2023/03/05 06:11:13;;;;;;;63.55;37.92;;;1.30;99.90;;;;;;5038220;28;20096;-69
2023/03/05 06:13:39;;;;;;;68.90;39.65;;;1.30;99.90;;;;;;5037719;28;20105;-69
2023/03/05 06:16:07;;;;;;;63.25;39.88;;;1.20;99.90;;;;;;5037808;28;20092;-69
2023/03/05 06:18:34;;;;;;;67.25;39.63;;;1.30;99.90;;;;;;5036666;28;20029;-69
2023/03/05 06:21:05;;;;;;;73.20;40.03;;;1.30;99.90;;;;;;5037694;28;20482;-69
2023/03/05 06:23:31;;;;;;;65.32;39.78;;;1.20;99.90;;;;;;5022123;28;20071;-69
2023/03/05 06:26:02;;;;;;;57.97;37.38;;;1.10;99.90;;;;;;5032510;28;20036;-71
2023/03/05 06:28:29;;;;;;;58.90;38.13;;;1.10;99.90;;;;;;5036495;28;20017;-69
2023/03/05 06:31:03;;;;;;;66.90;39.33;;;1.00;99.90;;;;;;5019077;28;20026;-69
2023/03/05 06:33:29;;;;;;;67.50;39.13;;;0.90;99.90;;;;;;5016352;28;20067;-69
2023/03/05 06:35:55;;;;;;;69.93;40.85;;;0.90;99.90;;;;;;5036657;28;20087;-69
2023/03/05 06:38:21;;;;;;;64.53;39.10;;;0.90;99.90;;;;;;5028375;28;20026;-69
2023/03/05 06:40:46;;;;;;;74.40;43.33;;;0.90;99.90;;;;;;5036653;28;20040;-69
2023/03/05 06:43:12;;;;;;;65.38;41.65;;;1.00;99.90;;;;;;5034736;28;20021;-69
2023/03/05 06:45:38;;;;;;;61.85;41.50;;;1.00;99.90;;;;;;5036285;28;20030;-69
2023/03/05 06:48:04;;;;;;;63.47;40.05;;;1.00;99.90;;;;;;5034428;28;20045;-70
2023/03/05 06:50:29;;;;;;;65.75;43.05;;;1.00;99.90;;;;;;5029637;28;20151;-69
2023/03/05 06:52:55;;;;;;;69.15;40.40;;;1.00;99.90;;;;;;5035584;28;20021;-69
2023/03/05 06:55:20;;;;;;;62.05;41.30;;;1.10;99.90;;;;;;5018838;28;20029;-69
2023/03/05 06:57:46;;;;;;;63.70;40.08;;;1.00;99.90;;;;;;5035841;28;20021;-69
2023/03/05 07:00:12;;;;;;;62.13;38.75;;;1.00;99.90;;;;;;5036687;28;20029;-69
2023/03/05 07:02:38;;;;;;;64.13;40.55;;;1.00;99.90;;;;;;5035784;28;20100;-69
2023/03/05 07:05:05;;;;;;;61.95;40.72;;;0.90;99.90;;;;;;5016055;28;20064;-69
2023/03/05 07:07:32;;;;;;;67.95;39.58;;;0.90;99.90;;;;;;5037120;28;20520;-69
2023/03/05 07:09:57;;;;;;;61.10;40.15;;;0.80;99.90;;;;;;5019532;28;20033;-69
2023/03/05 07:12:23;;;;;;;70.15;41.80;;;0.90;99.90;;;;;;5019494;28;20022;-69
2023/03/05 07:14:49;;;;;;;63.15;38.75;;;0.90;99.90;;;;;;5036968;28;20172;-69
2023/03/05 07:17:15;;;;;;;66.50;41.95;;;1.00;99.90;;;;;;5018982;28;20500;-69
2023/03/05 07:19:41;;;;;;;67.13;42.55;;;1.00;99.90;;;;;;5037036;28;20032;-69
2023/03/05 07:22:07;;;;;;;69.57;42.63;;;1.10;99.90;;;;;;5036797;28;20024;-69
2023/03/05 07:24:33;;;;;;;72.30;42.78;;;1.10;99.90;;;;;;5013342;28;20504;-69
2023/03/05 07:26:59;;;;;;;67.07;42.97;;;1.20;99.90;;;;;;5036665;28;20022;-69
2023/03/05 07:29:26;;;;;;;71.80;44.92;;;1.20;99.90;;;;;;5036977;28;20075;-69
2023/03/05 07:31:53;;;;;;;74.20;45.53;;;1.30;99.90;;;;;;5036366;28;20025;-69
2023/03/05 07:34:19;;;;;;;65.88;43.80;;;1.40;99.90;;;;;;5037073;28;20036;-69
2023/03/05 07:36:45;;;;;;;69.68;43.65;;;1.40;99.90;;;;;;5036424;28;20071;-69
2023/03/05 07:39:12;;;;;;;69.43;43.17;;;1.50;99.90;;;;;;5019256;28;20486;-69
2023/03/05 07:41:38;;;;;;;74.75;44.25;;;1.60;99.90;;;;;;5018945;28;20079;-69
2023/03/05 07:44:04;;;;;;;71.38;44.78;;;1.60;99.90;;;;;;5036779;28;20104;-70
2023/03/05 07:46:32;;;;;;;73.15;45.25;;;1.80;99.90;;;;;;5018301;28;20029;-69
2023/03/05 07:48:58;;;;;;;70.22;43.97;;;1.80;99.90;;;;;;5036693;28;20056;-69
2023/03/05 07:51:26;;;;;;;193.25;127.85;;;1.90;99.90;;;;;;5018584;28;20041;-69
2023/03/05 07:53:52;;;;;;;176.77;110.35;;;2.00;99.90;;;;;;5036727;28;20470;-69
2023/03/05 07:56:30;;;;;;;89.30;63.90;;;2.20;99.90;;;;;;5036361;28;20010;-69
2023/03/05 07:58:57;;;;;;;67.60;46.03;;;2.30;99.90;;;;;;5036261;28;20025;-69
2023/03/05 08:01:23;;;;;;;249.07;169.88;;;2.40;99.90;;;;;;5036577;28;20017;-71
2023/03/05 08:03:48;;;;;;;134.88;93.47;;;2.50;99.90;;;;;;5036270;28;20033;-68
2023/03/05 08:06:14;;;;;;;158.27;109.47;;;2.70;99.90;;;;;;5036748;28;20022;-68
2023/03/05 08:08:40;;;;;;;179.40;119.70;;;2.70;99.90;;;;;;5036144;28;20033;-68
2023/03/05 08:11:08;;;;;;;95.85;55.80;;;2.80;99.90;;;;;;5036562;28;20389;-68
2023/03/05 08:13:34;;;;;;;260.13;146.00;;;2.90;99.90;;;;;;5035784;28;20033;-68
2023/03/05 08:16:04;;;;;;;250.15;128.10;;;3.00;99.90;;;;;;5036312;28;20046;-68
2023/03/05 08:18:30;;;;;;;91.50;56.40;;;3.10;99.90;;;;;;5035979;28;20028;-68
2023/03/05 08:20:56;;;;;;;69.90;43.92;;;3.10;99.90;;;;;;5036403;28;20030;-68
2023/03/05 08:23:22;;;;;;;80.60;49.40;;;3.20;99.90;;;;;;5016819;28;20393;-68
2023/03/05 08:25:48;;;;;;;78.28;49.33;;;3.30;99.90;;;;;;5036270;28;20160;-68
2023/03/05 08:28:15;;;;;;;75.82;44.92;;;3.40;99.90;;;;;;5039156;28;20031;-68
2023/03/05 08:30:41;;;;;;;125.35;73.50;;;3.60;99.90;;;;;;5040199;28;20025;-68
2023/03/05 08:33:06;;;;;;;172.90;98.68;;;3.70;99.90;;;;;;5021976;28;20056;-68
2023/03/05 08:35:32;;;;;;;106.43;63.67;;;3.90;99.90;;;;;;5040119;28;20395;-68
2023/03/05 08:37:58;;;;;;;65.63;42.03;;;3.90;99.90;;;;;;5039580;28;20033;-68
2023/03/05 08:40:23;;;;;;;63.80;41.72;;;4.10;99.90;;;;;;5040213;28;20025;-68
2023/03/05 08:42:50;;;;;;;74.05;47.78;;;4.30;99.90;;;;;;5039511;28;20030;-69
2023/03/05 08:45:16;;;;;;;424.42;246.98;;;4.40;99.90;;;;;;5040017;28;20018;-68
2023/03/05 08:47:42;;;;;;;112.68;64.63;;;4.50;99.90;;;;;;5039233;28;20032;-68
2023/03/05 08:50:08;;;;;;;67.20;42.95;;;4.60;99.90;;;;;;5039823;28;20111;-69
2023/03/05 08:52:34;;;;;;;65.43;38.95;;;4.70;99.90;;;;;;5039327;28;20028;-69
2023/03/05 08:55:00;;;;;;;314.50;211.63;;;4.90;99.90;;;;;;5039659;28;20018;-69
2023/03/05 08:57:25;;;;;;;63.88;39.45;;;5.10;99.90;;;;;;5021636;28;20025;-69
2023/03/05 08:59:51;;;;;;;57.30;36.88;;;5.30;99.90;;;;;;5039556;28;20028;-69
2023/03/05 09:02:16;;;;;;;60.50;35.90;;;5.60;99.90;;;;;;5038388;28;20529;-69
2023/03/05 09:04:42;;;;;;;52.80;34.45;;;5.80;99.90;;;;;;5039355;28;20021;-69
2023/03/05 09:07:08;;;;;;;52.75;30.77;;;6.00;99.90;;;;;;5021449;28;20098;-69
2023/03/05 09:09:34;;;;;;;46.88;31.48;;;6.20;99.90;;;;;;5024779;28;20014;-69
2023/03/05 09:12:00;;;;;;;51.40;31.48;;;6.30;99.90;;;;;;5024484;28;20025;-69
2023/03/05 09:14:27;;;;;;;51.70;31.00;;;6.40;99.90;;;;;;5025987;28;20082;-69
2023/03/05 09:16:54;;;;;;;46.78;32.40;;;6.60;99.90;;;;;;5032837;28;20041;-69
2023/03/05 09:19:20;;;;;;;48.42;32.28;;;6.70;99.90;;;;;;5021413;28;20021;-69
2023/03/05 09:21:45;;;;;;;42.88;28.40;;;6.80;99.90;;;;;;5020369;28;20068;-69
2023/03/05 09:24:13;;;;;;;52.78;30.95;;;7.00;99.90;;;;;;5021282;28;20112;-69
2023/03/05 09:26:40;;;;;;;49.47;31.95;;;7.00;99.90;;;;;;5038471;28;20112;-69
2023/03/05 09:29:07;;;;;;;51.63;31.98;;;7.10;99.90;;;;;;5020846;28;20112;-70
2023/03/05 09:31:34;;;;;;;44.08;28.35;;;7.20;99.90;;;;;;5012756;28;20037;-69
2023/03/05 09:34:00;;;;;;;46.60;30.00;;;7.30;99.90;;;;;;5029581;28;20115;-69
2023/03/05 09:36:29;;;;;;;44.88;29.75;;;7.30;99.90;;;;;;5028096;28;20026;-69
2023/03/05 09:38:55;;;;;;;55.05;32.05;;;7.40;99.90;;;;;;5015251;28;20017;-69
2023/03/05 09:41:35;;;;;;;44.55;30.10;;;7.50;99.90;;;;;;5038492;28;20033;-69
2023/03/05 09:44:13;;;;;;;;;;;7.60;99.90;;;;;;5039325;28;20104;-70
2023/03/05 09:46:43;;;;;;;50.60;31.65;;;7.60;99.90;;;;;;5020589;28;19940;-69
2023/03/05 09:49:27;;;;;;;44.45;25.92;;;7.70;99.90;;;;;;5038629;28;20026;-70
2023/03/05 09:51:59;;;;;;;49.03;28.95;;;7.70;99.90;;;;;;5038571;28;20052;-70
2023/03/05 09:54:38;;;;;;;48.00;31.73;;;7.80;99.90;;;;;;5038378;28;20022;-69
2023/03/05 09:57:12;;;;;;;42.47;27.73;;;7.80;99.90;;;;;;5038668;28;20029;-69
2023/03/05 10:00:33;;;;;;;58.60;30.77;;;7.80;99.90;;;;;;5020460;28;20031;-69
2023/03/05 10:03:04;;;;;;;47.33;29.70;;;7.90;99.90;;;;;;4958186;29;20034;-69
2023/03/05 10:05:52;;;;;;;48.17;29.38;;;8.00;99.90;;;;;;5031731;28;20620;-69
2023/03/05 10:08:21;;;;;;;52.08;30.77;;;8.10;99.90;;;;;;5011251;28;20032;-70
2023/03/05 10:10:51;;;;;;;48.63;31.80;;;8.10;99.90;;;;;;5017343;28;20137;-69
2023/03/05 10:13:29;;;;;;;43.85;28.90;;;8.20;99.90;;;;;;5036446;28;20367;-69
2023/03/05 10:15:55;;;;;;;42.13;27.20;;;8.30;99.90;;;;;;5036607;28;20046;-70
2023/03/05 10:18:40;;;;;;;47.67;29.00;;;8.50;99.90;;;;;;5032294;28;20017;-69
2023/03/05 10:21:15;;;;;;;44.47;29.40;;;8.50;99.90;;;;;;5019224;28;20045;-69
2023/03/05 10:23:50;;;;;;;43.97;28.75;;;8.60;99.90;;;;;;5025199;28;20032;-69
2023/03/05 10:26:40;;;;;;;48.00;27.80;;;8.70;99.90;;;;;;5031920;28;20497;-69
2023/03/05 10:29:35;;;;;;;43.60;28.30;;;8.80;99.90;;;;;;5031651;28;20033;-70
2023/03/05 10:32:30;;;;;;;50.38;32.05;;;8.80;99.90;;;;;;5034857;28;20026;-69
2023/03/05 10:35:34;;;;;;;44.15;29.50;;;8.80;99.90;;;;;;5033954;28;20104;-70
2023/03/05 10:38:06;;;;;;;39.92;27.98;;;8.90;99.90;;;;;;5028176;28;20044;-69
2023/03/05 10:40:40;;;;;;;47.78;30.10;;;9.00;99.90;;;;;;5019990;28;20029;-70
2023/03/05 10:43:21;;;;;;;42.13;28.23;;;9.10;99.90;;;;;;5018649;28;20505;-69
2023/03/05 10:45:49;;;;;;;47.88;29.15;;;9.10;99.90;;;;;;5018208;28;20030;-70
2023/03/05 10:48:32;;;;;;;42.85;28.67;;;9.20;99.90;;;;;;5022591;28;20033;-69
2023/03/05 10:51:24;;;;;;;45.58;29.60;;;9.30;99.90;;;;;;5033776;28;20041;-69
2023/03/05 10:53:50;;;;;;;48.78;29.30;;;9.40;99.90;;;;;;5015846;28;20035;-69
2023/03/05 10:56:20;;;;;;;49.45;30.02;;;9.40;99.90;;;;;;5036180;28;20021;-69
2023/03/05 10:58:45;;;;;;;44.20;28.47;;;9.40;99.90;;;;;;5017492;28;20022;-69
2023/03/05 11:01:11;;;;;;;45.42;29.45;;;9.40;99.90;;;;;;5035768;28;20374;-70
2023/03/05 11:04:02;;;;;;;44.78;29.77;;;9.50;99.90;;;;;;5035560;28;20117;-71
2023/03/05 11:06:36;;;;;;;42.05;27.33;;;9.50;99.90;;;;;;5035607;28;20389;-69
2023/03/05 11:09:23;;;;;;;45.42;27.63;;;9.60;99.90;;;;;;5018945;28;20026;-69
2023/03/05 11:12:10;;;;;;;45.22;28.05;;;9.60;99.90;;;;;;5016177;28;20083;-69
2023/03/05 11:14:40;;;;;;;42.00;28.00;;;9.70;99.90;;;;;;5036888;28;20155;-69
2023/03/05 11:17:37;;;;;;;45.30;27.80;;;9.70;99.90;;;;;;5036487;28;20505;-69
2023/03/05 11:20:21;;;;;;;47.17;28.95;;;9.90;99.90;;;;;;5050566;28;20036;-69
2023/03/05 11:23:09;;;;;;;38.00;27.08;;;10.00;99.90;;;;;;5036038;28;20065;-69
2023/03/05 11:25:49;;;;;;;40.00;26.00;;;10.10;99.90;;;;;;5035824;28;20029;-69
2023/03/05 11:28:21;;;;;;;47.38;28.63;;;10.00;99.90;;;;;;5036824;28;20028;-69
2023/03/05 11:30:59;;;;;;;48.05;26.95;;;10.10;99.90;;;;;;5036280;28;20112;-69
2023/03/05 11:33:25;;;;;;;43.33;28.08;;;10.20;99.90;;;;;;5036511;28;20024;-69
2023/03/05 11:36:03;;;;;;;46.63;30.65;;;10.20;99.90;;;;;;5036544;28;20025;-69
2023/03/05 11:38:29;;;;;;;44.53;28.73;;;10.30;99.90;;;;;;5018623;28;20374;-69
2023/03/05 11:40:56;;;;;;;42.30;27.65;;;10.40;99.90;;;;;;5018757;28;20106;-69
2023/03/05 11:43:23;;;;;;;36.67;25.70;;;10.40;99.90;;;;;;5036797;28;20385;-69
2023/03/05 11:46:04;;;;;;;44.80;26.65;;;10.40;99.90;;;;;;5018610;28;20026;-69
2023/03/05 11:48:35;;;;;;;43.42;28.42;;;10.50;99.90;;;;;;5012301;28;20075;-69
2023/03/05 11:51:14;;;;;;;47.45;28.30;;;10.60;99.90;;;;;;5036706;28;20033;-69
2023/03/05 11:53:43;;;;;;;40.40;25.70;;;10.70;99.90;;;;;;5018715;28;20064;-69
2023/03/05 11:56:49;;;;;;;38.05;24.63;;;10.70;99.90;;;;;;5036528;28;20025;-69
2023/03/05 11:59:29;;;;;;;41.00;26.60;;;10.80;99.90;;;;;;4992545;28;20033;-69
2023/03/05 12:01:56;;;;;;;37.53;26.08;;;10.70;99.90;;;;;;5037293;28;20417;-69
2023/03/05 12:04:23;;;;;;;41.67;24.42;;;10.60;99.90;;;;;;5040418;28;20529;-69
2023/03/05 12:06:56;;;;;;;41.17;26.60;;;10.70;99.90;;;;;;5040364;28;20026;-69
2023/03/05 12:09:46;;;;;;;42.88;27.63;;;10.70;99.90;;;;;;5022166;28;20079;-69
2023/03/05 12:12:34;;;;;;;39.85;26.38;;;10.80;99.90;;;;;;5040314;28;20060;-69
2023/03/05 12:15:16;;;;;;;42.78;24.88;;;10.90;99.90;;;;;;5040292;28;20029;-69
2023/03/05 12:18:07;;;;;;;43.97;28.23;;;11.10;99.90;;;;;;5038417;28;20099;-69
2023/03/05 12:20:37;;;;;;;41.42;26.58;;;11.20;99.90;;;;;;5022549;28;20084;-69
2023/03/05 12:23:02;;;;;;;47.33;28.92;;;11.30;99.90;;;;;;5022052;28;20029;-69
2023/03/05 12:25:33;;;;;;;39.85;26.00;;;11.40;99.90;;;;;;5039828;28;20039;-69
2023/03/05 12:28:00;;;;;;;45.83;28.00;;;11.60;99.90;;;;;;5022453;28;20025;-69
2023/03/05 12:30:34;;;;;;;34.63;22.05;;;11.60;99.90;;;;;;5039634;28;20029;-70
2023/03/05 12:33:02;;;;;;;36.88;23.50;;;11.70;99.90;;;;;;5039573;28;20049;-70
2023/03/05 12:35:37;;;;;;;39.33;24.38;;;11.60;99.90;;;;;;5039849;28;20022;-70
2023/03/05 12:38:34;;;;;;;37.00;23.67;;;11.50;99.90;;;;;;5039748;28;20014;-70
2023/03/05 12:41:22;;;;;;;41.60;24.40;;;11.50;99.90;;;;;;5025513;28;20046;-69
2023/03/05 12:44:05;;;;;;;35.72;23.85;;;11.50;99.90;;;;;;5039443;28;20101;-69
2023/03/05 12:46:34;;;;;;;37.90;24.30;;;11.40;99.90;;;;;;5039279;28;20030;-69